This is the latest recevied weather packets stored in our database for station/object KE4BFX. If no packets are shown the sender has not sent any weather packets the latest 10 day(s).
| Time | Temp. | Humidity | Pressure | Rain* | Wind** | Luminosity | Snow |
|---|---|---|---|---|---|---|---|
| 1778034614 | 20.56° C | 83% | 1014.4 hPa | 0 mm | - | 0 W/m² | - |
| 1778031614 | 21.11° C | 82% | 1014.2 hPa | 0 mm | - | 0 W/m² | - |
| 1778026814 | 22.78° C | 79% | 1013.7 hPa | 0 mm | - | 7 W/m² | - |
| 1778025614 | 22.78° C | 77% | 1013.8 hPa | 0 mm | - | 28 W/m² | - |
| 1778023214 | 23.89° C | 73% | 1013.7 hPa | 0 mm | - | 90 W/m² | - |
| 1778009414 | 26.67° C | 62% | 1014.3 hPa | 0 mm | - | 770 W/m² | - |
| 1778007615 | 26.67° C | 62% | 1014.5 hPa | 0 mm | - | 900 W/m² | - |
| 1778005814 | 27.22° C | 63% | 1014.9 hPa | 0 mm | - | 979 W/m² | - |
| 1778002815 | 25.56° C | 68% | 1014.9 hPa | 0 mm | - | 1076 W/m² | - |
| 1777983616 | 12.78° C | 90% | 1021.5 hPa | 0 mm | - | 121 W/m² | - |
| 1777980615 | 11.11° C | 89% | 1021.5 hPa | 0 mm | - | 21 W/m² | - |
| 1777980016 | 11.11° C | 89% | 1021.5 hPa | 0 mm | - | 14 W/m² | - |
| 1777974615 | 11.11° C | 88% | 1021.5 hPa | 0 mm | - | 0 W/m² | - |
| 1777972816 | 11.11° C | 88% | 1021.5 hPa | 0 mm | - | 0 W/m² | - |
| 1777968616 | 11.67° C | 88% | 1021.5 hPa | 0 mm | - | 0 W/m² | - |
| 1777968016 | 11.67° C | 87% | 1021.5 hPa | 0 mm | - | 0 W/m² | - |
| 1777966816 | 12.22° C | 87% | 1021.5 hPa | 0 mm | - | 0 W/m² | - |
| 1777962016 | 12.22° C | 86% | 1021.5 hPa | 0 mm | - | 0 W/m² | - |
| 1777960216 | 12.22° C | 85% | 1021.5 hPa | 0 mm | - | 0 W/m² | - |
| 1777954816 | 13.33° C | 82% | 1021.5 hPa | 0 mm | - | 0 W/m² | - |
| 1777953615 | 13.89° C | 82% | 1021.5 hPa | 0 mm | - | 0 W/m² | - |
| 1777951817 | 14.44° C | 81% | 1021.5 hPa | 0 mm | - | 0 W/m² | - |
| 1777950616 | 14.44° C | 79% | 1021.5 hPa | 0 mm | - | 0 W/m² | - |
| 1777948216 | 15.56° C | 76% | 1021.5 hPa | 0 mm | - | 0 W/m² | - |
| 1777945216 | 17.78° C | 72% | 1021.5 hPa | 0 mm | - | 0 W/m² | - |
* Rain latest hour (hover to see other rain measurements)
** Current wind speed in m/s (hover to see current wind gust speed)